createdAt,value
2019-05-02T00:00:58.312Z,98287.00
2019-05-02T00:03:35.899Z,98290.00
2019-05-02T00:06:09.669Z,98278.00
2019-05-02T00:08:48.522Z,98288.00
2019-05-02T00:11:25.498Z,98283.00
2019-05-02T00:13:59.461Z,98290.00
2019-05-02T00:16:33.782Z,98286.00
2019-05-02T00:19:09.049Z,98286.00
2019-05-02T00:21:43.225Z,98285.00
2019-05-02T00:24:16.801Z,98280.00
2019-05-02T00:26:56.221Z,98287.00
2019-05-02T00:29:27.889Z,98282.00
2019-05-02T00:32:00.296Z,98269.00
2019-05-02T00:34:35.022Z,98268.00
2019-05-02T00:37:18.791Z,98272.00
2019-05-02T00:39:49.211Z,98261.00
2019-05-02T00:42:28.383Z,98263.00
2019-05-02T00:45:04.285Z,98260.00
2019-05-02T00:47:47.686Z,98257.00
2019-05-02T00:50:28.931Z,98243.00
2019-05-02T00:53:50.064Z,98256.00
2019-05-02T00:56:23.240Z,98253.00
2019-05-02T00:58:55.814Z,98248.00
2019-05-02T01:01:36.172Z,98250.00
2019-05-02T01:11:34.901Z,98249.00
2019-05-02T01:14:12.471Z,98258.00
2019-05-02T01:16:49.511Z,98252.00
2019-05-02T01:19:27.700Z,98244.00
2019-05-02T01:22:03.998Z,98239.00
2019-05-02T01:24:39.618Z,98237.00
2019-05-02T01:27:23.790Z,98239.00
2019-05-02T01:30:05.409Z,98233.00
2019-05-02T01:32:56.553Z,98237.00
2019-05-02T01:35:44.388Z,98232.00
2019-05-02T01:38:21.525Z,98239.00
2019-05-02T01:40:56.196Z,98225.00
2019-05-02T01:43:33.239Z,98224.00
2019-05-02T01:46:05.971Z,98235.00
2019-05-02T01:48:45.920Z,98225.00
2019-05-02T01:51:19.568Z,98224.00
2019-05-02T01:53:55.456Z,98215.00
2019-05-02T01:56:33.225Z,98217.00
2019-05-02T01:59:05.845Z,98212.00
2019-05-02T02:01:39.428Z,98215.00
2019-05-02T02:04:16.318Z,98215.00
2019-05-02T02:06:57.210Z,98210.00
2019-05-02T02:09:38.918Z,98208.00
2019-05-02T02:12:18.952Z,98209.00
2019-05-02T02:14:55.450Z,98212.00
2019-05-02T02:17:28.584Z,98216.00
2019-05-02T02:20:09.652Z,98202.00
2019-05-02T02:24:25.222Z,98194.00
2019-05-02T02:27:04.309Z,98209.00
2019-05-02T02:29:43.875Z,98204.00
2019-05-02T02:32:20.096Z,98196.00
2019-05-02T02:34:56.571Z,98197.00
2019-05-02T02:37:29.974Z,98192.00
2019-05-02T02:41:45.488Z,98195.00
2019-05-02T02:44:21.398Z,98195.00
2019-05-02T02:46:56.953Z,98190.00
2019-05-02T02:49:35.351Z,98190.00
2019-05-02T02:52:09.089Z,98176.00
2019-05-02T02:54:45.082Z,98184.00
2019-05-02T02:57:26.003Z,98181.00
2019-05-02T03:00:08.157Z,98187.00
2019-05-02T03:02:47.734Z,98187.00
2019-05-02T03:05:18.980Z,98180.00
2019-05-02T03:07:52.565Z,98180.00
2019-05-02T03:10:27.188Z,98181.00
2019-05-02T03:13:24.753Z,98172.00
2019-05-02T03:16:11.573Z,98173.00
2019-05-02T03:18:44.918Z,98164.00
2019-05-02T03:21:22.190Z,98167.00
2019-05-02T03:24:03.270Z,98170.00
2019-05-02T03:26:31.767Z,98180.00
2019-05-02T03:29:08.050Z,98168.00
2019-05-02T03:31:44.692Z,98167.00
2019-05-02T03:34:18.819Z,98170.00
2019-05-02T03:37:10.707Z,98163.00
2019-05-02T03:39:38.721Z,98170.00
2019-05-02T03:42:12.025Z,98173.00
2019-05-02T03:44:54.890Z,98180.00
2019-05-02T03:47:20.019Z,98181.00
2019-05-02T03:49:55.228Z,98183.00
2019-05-02T03:52:28.707Z,98172.00
2019-05-02T03:55:01.067Z,98165.00
2019-05-02T03:57:41.948Z,98174.00
2019-05-02T04:00:20.862Z,98167.00
2019-05-02T04:02:59.176Z,98180.00
2019-05-02T04:05:33.358Z,98168.00
2019-05-02T04:08:03.699Z,98178.00
2019-05-02T04:10:59.653Z,98175.00
2019-05-02T04:13:38.155Z,98177.00
2019-05-02T04:16:19.941Z,98178.00
2019-05-02T04:19:05.749Z,98174.00
2019-05-02T04:21:43.347Z,98179.00
2019-05-02T04:24:17.535Z,98183.00
2019-05-02T04:26:56.370Z,98176.00
2019-05-02T04:29:35.234Z,98178.00
2019-05-02T04:32:11.408Z,98183.00
2019-05-02T04:34:57.973Z,98176.00
2019-05-02T04:37:40.918Z,98174.00
2019-05-02T04:40:14.722Z,98166.00
2019-05-02T04:43:00.303Z,98164.00
2019-05-02T04:45:38.356Z,98162.00
2019-05-02T04:48:03.984Z,98167.00
2019-05-02T04:50:40.318Z,98159.00
2019-05-02T04:53:12.828Z,98158.00
2019-05-02T04:56:01.617Z,98164.00
2019-05-02T04:58:29.689Z,98165.00
2019-05-02T05:01:04.544Z,98147.00
2019-05-02T05:03:41.061Z,98161.00
2019-05-02T05:06:15.706Z,98155.00
2019-05-02T05:08:48.475Z,98158.00
2019-05-02T05:11:24.996Z,98154.00
2019-05-02T05:14:00.410Z,98156.00
2019-05-02T05:16:37.276Z,98131.00
2019-05-02T05:19:11.463Z,98134.00
2019-05-02T05:21:47.631Z,98132.00
2019-05-02T05:24:24.945Z,98123.00
2019-05-02T05:27:00.276Z,98110.00
2019-05-02T05:29:37.363Z,98111.00
2019-05-02T05:32:18.840Z,98114.00
2019-05-02T05:34:54.065Z,98113.00
2019-05-02T05:37:29.486Z,98114.00
2019-05-02T05:39:59.607Z,98113.00
2019-05-02T05:42:37.964Z,98105.00
2019-05-02T05:45:14.013Z,98104.00
2019-05-02T05:47:52.392Z,98102.00
2019-05-02T05:50:27.594Z,98091.00
2019-05-02T05:53:04.792Z,98091.00
2019-05-02T05:55:44.125Z,98107.00
2019-05-02T05:58:22.462Z,98111.00
2019-05-02T06:00:58.406Z,98121.00
2019-05-02T06:03:44.537Z,98118.00
2019-05-02T06:06:24.437Z,98109.00
2019-05-02T06:09:02.205Z,98107.00
2019-05-02T06:11:39.934Z,98115.00
2019-05-02T06:14:19.960Z,98108.00
2019-05-02T06:16:51.785Z,98109.00
2019-05-02T06:19:26.684Z,98105.00
2019-05-02T06:22:00.156Z,98107.00
2019-05-02T06:24:38.048Z,98116.00
2019-05-02T17:40:01.649Z,97762.00
2019-05-02T17:44:22.213Z,97762.00
2019-05-02T17:46:58.132Z,97766.00
2019-05-02T17:49:36.650Z,97777.00
2019-05-02T17:52:43.029Z,97772.00
2019-05-02T17:55:18.408Z,97771.00
2019-05-02T17:58:04.574Z,97775.00
2019-05-02T18:00:43.163Z,97781.00
2019-05-02T18:03:18.482Z,97777.00
2019-05-02T18:05:58.809Z,97783.00
2019-05-02T18:08:36.026Z,97778.00
2019-05-02T18:11:14.385Z,97786.00
2019-05-02T18:13:51.777Z,97792.00
2019-05-02T18:16:25.129Z,97798.00
2019-05-02T18:19:01.938Z,97808.00
2019-05-02T18:21:58.201Z,97806.00
2019-05-02T18:24:42.817Z,97802.00
2019-05-02T18:27:19.743Z,97810.00
2019-05-02T18:29:58.175Z,97814.00
2019-05-02T18:32:44.072Z,97808.00
2019-05-02T18:35:28.858Z,97822.00
2019-05-02T18:38:07.357Z,97821.00
2019-05-02T18:40:42.567Z,97825.00
2019-05-02T18:43:28.156Z,97831.00
2019-05-02T18:46:07.723Z,97830.00
2019-05-02T18:52:38.055Z,97830.00
2019-05-02T18:55:23.059Z,97842.00
2019-05-02T18:58:05.414Z,97848.00
2019-05-02T19:00:39.587Z,97855.00
2019-05-02T19:03:17.242Z,97867.00
2019-05-02T19:05:57.273Z,97882.00
2019-05-02T19:08:45.261Z,97901.00
2019-05-02T19:11:21.987Z,97910.00
2019-05-02T19:14:04.900Z,97924.00
2019-05-02T19:16:38.581Z,97936.00
2019-05-02T19:19:12.589Z,97938.00
2019-05-02T19:21:47.691Z,97945.00
2019-05-02T19:24:27.516Z,97950.00
2019-05-02T19:27:30.168Z,97947.00
2019-05-02T19:30:03.832Z,97965.00
2019-05-02T19:38:27.456Z,97967.00
2019-05-02T19:41:05.467Z,97976.00
2019-05-02T19:44:21.400Z,97972.00
2019-05-02T19:46:57.333Z,97973.00
2019-05-02T19:49:37.167Z,97974.00
2019-05-02T19:52:12.865Z,97977.00
2019-05-02T19:54:46.731Z,97971.00
2019-05-02T19:57:24.873Z,97970.00
2019-05-02T19:59:57.162Z,97972.00
2019-05-02T20:02:37.430Z,97973.00
2019-05-02T20:05:36.765Z,97976.00
2019-05-02T20:08:22.819Z,97970.00
2019-05-02T20:10:58.638Z,97966.00
2019-05-02T20:13:33.786Z,97982.00
2019-05-02T20:16:16.532Z,97977.00
2019-05-02T20:18:54.030Z,97979.00
2019-05-02T20:21:29.751Z,97982.00
2019-05-02T20:24:17.575Z,97982.00
2019-05-02T20:26:54.536Z,97977.00
2019-05-02T20:29:25.109Z,97973.00
2019-05-02T20:32:02.137Z,97984.00
2019-05-02T20:34:42.122Z,97979.00
2019-05-02T20:50:53.437Z,97983.00
2019-05-02T20:53:35.621Z,97980.00
2019-05-02T20:56:14.903Z,97972.00
2019-05-02T20:58:52.748Z,97971.00
2019-05-02T21:01:31.655Z,97971.00
2019-05-02T21:05:15.070Z,97964.00
2019-05-02T21:08:01.963Z,97964.00
2019-05-02T21:10:43.251Z,97966.00
2019-05-02T21:13:32.617Z,97965.00
2019-05-02T21:16:12.395Z,97962.00
2019-05-02T21:18:46.167Z,97969.00
2019-05-02T21:21:25.769Z,97972.00
2019-05-02T21:24:17.808Z,97970.00
2019-05-02T21:27:01.788Z,97977.00
2019-05-02T21:29:37.088Z,97982.00
2019-05-02T21:32:16.174Z,97980.00
2019-05-02T21:34:55.133Z,97975.00
2019-05-02T21:37:29.078Z,97982.00
2019-05-02T21:40:09.422Z,97984.00
2019-05-02T21:42:44.086Z,97984.00
2019-05-02T21:45:19.969Z,97985.00
2019-05-02T21:47:58.877Z,97987.00
2019-05-02T21:50:46.385Z,97993.00
2019-05-02T21:53:28.243Z,97993.00
2019-05-02T21:56:04.987Z,97983.00
2019-05-02T21:58:42.698Z,97980.00
2019-05-02T22:01:17.887Z,97979.00
2019-05-02T22:03:53.236Z,97983.00
2019-05-02T22:06:32.979Z,97974.00
2019-05-02T22:09:07.732Z,97971.00
2019-05-02T22:11:46.615Z,97977.00
2019-05-02T22:14:22.299Z,97971.00
2019-05-02T22:16:54.581Z,97965.00
2019-05-02T22:19:29.876Z,97982.00
2019-05-02T22:22:07.155Z,97980.00
2019-05-02T22:24:49.169Z,97982.00
2019-05-02T22:27:32.362Z,97978.00
2019-05-02T22:30:13.855Z,97972.00
2019-05-02T22:32:48.600Z,97970.00
2019-05-02T22:35:43.464Z,97969.00
2019-05-02T22:38:26.451Z,97960.00
2019-05-02T22:41:04.193Z,97966.00
2019-05-02T22:43:42.133Z,97966.00
2019-05-02T22:46:43.285Z,97975.00
2019-05-02T22:49:17.222Z,97965.00
2019-05-02T22:51:56.585Z,97961.00
2019-05-02T22:54:31.545Z,97960.00
2019-05-02T22:57:04.654Z,97970.00
2019-05-02T22:59:44.487Z,97967.00
2019-05-02T23:02:17.981Z,97968.00
2019-05-02T23:04:55.325Z,97969.00
2019-05-02T23:07:31.724Z,97972.00
2019-05-02T23:10:05.465Z,97966.00
2019-05-02T23:12:39.410Z,97982.00
2019-05-02T23:15:37.339Z,97984.00
2019-05-02T23:18:17.286Z,97981.00
2019-05-02T23:21:02.862Z,97993.00
2019-05-02T23:23:41.846Z,97984.00
2019-05-02T23:26:35.975Z,97985.00
2019-05-02T23:29:34.451Z,97988.00
2019-05-02T23:32:11.835Z,97995.00
2019-05-02T23:34:46.380Z,98002.00
2019-05-02T23:37:18.957Z,97993.00
2019-05-02T23:39:56.239Z,97990.00
2019-05-02T23:42:34.310Z,97988.00
2019-05-02T23:45:09.450Z,97978.00
2019-05-02T23:47:44.429Z,97983.00
2019-05-02T23:50:17.976Z,97984.00
2019-05-02T23:52:55.342Z,97980.00
2019-05-02T23:55:28.325Z,97983.00
2019-05-02T23:58:08.051Z,97973.00
